createdAt,value
2019-05-21T00:00:16.928Z,66.90
2019-05-21T00:02:44.533Z,67.00
2019-05-21T00:05:12.009Z,67.10
2019-05-21T00:07:39.607Z,67.20
2019-05-21T00:10:07.444Z,67.20
2019-05-21T00:12:35.020Z,67.10
2019-05-21T00:15:03.013Z,66.10
2019-05-21T00:18:28.509Z,66.30
2019-05-21T00:20:55.999Z,66.70
2019-05-21T00:23:23.501Z,66.60
2019-05-21T00:25:50.851Z,66.60
2019-05-21T00:28:40.114Z,66.60
2019-05-21T00:31:44.263Z,66.60
2019-05-21T00:34:49.128Z,66.50
2019-05-21T00:37:53.633Z,66.40
2019-05-21T00:40:58.290Z,66.40
2019-05-21T00:43:54.449Z,66.50
2019-05-21T00:46:21.794Z,66.70
2019-05-21T00:49:40.646Z,66.30
2019-05-21T00:52:09.179Z,66.90
2019-05-21T00:54:37.006Z,66.90
2019-05-21T00:57:04.444Z,66.90
2019-05-21T00:59:31.899Z,66.90
2019-05-21T01:01:59.350Z,66.90
2019-05-21T01:04:26.694Z,66.80
2019-05-21T01:06:54.367Z,66.90
2019-05-21T01:09:21.782Z,66.90
2019-05-21T01:11:49.133Z,66.70
2019-05-21T01:14:16.499Z,66.70
2019-05-21T01:16:43.948Z,66.60
2019-05-21T01:19:11.286Z,66.60
2019-05-21T01:21:38.715Z,66.60
2019-05-21T01:24:06.066Z,66.70
2019-05-21T01:26:33.439Z,66.80
2019-05-21T01:29:00.755Z,66.80
2019-05-21T01:31:28.236Z,66.70
2019-05-21T01:33:55.736Z,66.70
2019-05-21T01:36:23.100Z,66.70
2019-05-21T01:38:50.447Z,66.80
2019-05-21T01:41:17.832Z,66.80
2019-05-21T01:43:45.301Z,66.60
2019-05-21T01:46:12.760Z,66.70
2019-05-21T01:48:40.127Z,66.70
2019-05-21T01:51:07.718Z,66.70
2019-05-21T01:53:35.023Z,66.70
2019-05-21T01:56:02.460Z,66.60
2019-05-21T01:58:29.816Z,66.60
2019-05-21T02:00:57.201Z,66.70
2019-05-21T02:03:24.650Z,66.80
2019-05-21T02:05:52.017Z,66.70
2019-05-21T02:08:19.252Z,66.60
2019-05-21T02:10:46.628Z,66.60
2019-05-21T02:13:14.106Z,66.60
2019-05-21T02:15:41.432Z,66.60
2019-05-21T02:18:08.834Z,67.30
2019-05-21T02:20:36.215Z,66.50
2019-05-21T02:23:03.685Z,66.30
2019-05-21T02:25:31.048Z,66.20
2019-05-21T02:27:58.488Z,66.20
2019-05-21T02:30:25.824Z,66.10
2019-05-21T02:32:53.149Z,66.10
2019-05-21T02:35:20.557Z,66.00
2019-05-21T02:37:47.938Z,66.10
2019-05-21T02:40:16.716Z,66.00
2019-05-21T02:42:44.049Z,65.90
2019-05-21T02:45:11.620Z,65.90
2019-05-21T02:47:39.123Z,65.90
2019-05-21T02:50:07.323Z,65.90
2019-05-21T02:52:34.841Z,65.90
2019-05-21T02:55:02.257Z,65.90
2019-05-21T02:57:41.574Z,65.90
2019-05-21T03:00:39.198Z,65.90
2019-05-21T03:03:07.502Z,66.00
2019-05-21T03:05:34.956Z,65.90
2019-05-21T03:08:02.434Z,66.90
2019-05-21T03:10:29.778Z,66.00
2019-05-21T03:12:57.183Z,66.00
2019-05-21T03:15:24.576Z,66.00
2019-05-21T03:17:51.936Z,65.90
2019-05-21T03:20:19.244Z,66.00
2019-05-21T03:22:46.765Z,66.00
2019-05-21T03:25:14.222Z,66.00
2019-05-21T03:27:41.571Z,66.00
2019-05-21T03:30:09.524Z,65.90
2019-05-21T03:32:36.882Z,66.00
2019-05-21T03:35:04.604Z,66.00
2019-05-21T03:37:31.907Z,66.00
2019-05-21T03:39:59.350Z,66.00
2019-05-21T03:42:26.808Z,66.10
2019-05-21T03:44:59.677Z,66.20
2019-05-21T03:47:23.590Z,66.20
2019-05-21T03:49:51.870Z,66.20
2019-05-21T03:52:19.428Z,66.20
2019-05-21T03:54:46.873Z,66.20
2019-05-21T03:57:15.254Z,66.20
2019-05-21T03:59:42.609Z,66.30
2019-05-21T04:02:10.142Z,66.20
2019-05-21T04:04:37.603Z,66.20
2019-05-21T04:07:04.973Z,66.10
2019-05-21T04:09:32.470Z,64.20
2019-05-21T04:11:59.872Z,66.10
2019-05-21T04:14:41.355Z,66.20
2019-05-21T04:17:16.736Z,66.30
2019-05-21T04:19:44.202Z,66.30
2019-05-21T04:22:16.262Z,66.40
2019-05-21T04:24:43.660Z,67.20
2019-05-21T04:27:11.033Z,66.40
2019-05-21T04:29:38.468Z,66.40
2019-05-21T04:32:05.913Z,66.50
2019-05-21T04:34:33.336Z,65.20
2019-05-21T04:37:11.000Z,66.30
2019-05-21T04:39:29.944Z,66.30
2019-05-21T04:41:57.450Z,66.30
2019-05-21T04:44:25.054Z,66.50
2019-05-21T04:46:52.558Z,66.50
2019-05-21T04:49:20.612Z,66.50
2019-05-21T04:51:48.071Z,66.50
2019-05-21T04:54:15.822Z,66.50
2019-05-21T04:56:43.281Z,66.50
2019-05-21T04:59:11.570Z,66.60
2019-05-21T05:01:39.021Z,66.70
2019-05-21T05:04:06.461Z,66.70
2019-05-21T05:06:33.836Z,66.80
2019-05-21T05:09:01.296Z,66.70
2019-05-21T05:11:29.004Z,66.70
2019-05-21T05:13:56.464Z,66.70
2019-05-21T05:16:23.984Z,66.90
2019-05-21T05:18:51.398Z,66.70
2019-05-21T05:21:18.872Z,66.80
2019-05-21T05:23:46.344Z,66.90
2019-05-21T05:26:13.679Z,66.90
2019-05-21T05:28:41.076Z,66.80
2019-05-21T05:31:08.585Z,67.60
2019-05-21T05:36:23.066Z,66.80
2019-05-21T05:38:50.429Z,66.80
2019-05-21T05:41:18.004Z,66.70
2019-05-21T05:43:45.410Z,66.70
2019-05-21T05:46:32.562Z,64.80
2019-05-21T05:49:08.925Z,66.60
2019-05-21T05:51:36.323Z,66.70
2019-05-21T05:54:07.157Z,66.70
2019-05-21T05:56:33.088Z,66.80
2019-05-21T05:59:00.621Z,66.80
2019-05-21T06:01:29.646Z,67.00
2019-05-21T06:03:57.121Z,66.80
2019-05-21T06:06:24.622Z,66.90
2019-05-21T06:08:52.225Z,66.80
2019-05-21T06:11:19.569Z,66.80
2019-05-21T06:13:47.003Z,66.80
2019-05-21T06:16:14.683Z,66.80
2019-05-21T06:19:04.232Z,66.70
2019-05-21T06:21:31.688Z,66.90
2019-05-21T06:23:59.049Z,66.70
2019-05-21T06:26:27.364Z,66.80
2019-05-21T06:28:54.919Z,66.80
2019-05-21T06:31:22.445Z,66.90
2019-05-21T06:33:50.302Z,66.80
2019-05-21T06:36:17.756Z,66.80
2019-05-21T06:38:45.266Z,66.80
2019-05-21T06:41:12.798Z,66.70
2019-05-21T06:43:40.241Z,66.70
2019-05-21T06:46:07.709Z,66.40
2019-05-21T06:48:35.156Z,66.50
2019-05-21T06:51:02.583Z,66.20
2019-05-21T06:53:29.935Z,66.10
2019-05-21T06:56:16.813Z,66.00
2019-05-21T06:58:44.235Z,66.00
2019-05-21T07:01:11.812Z,65.80
2019-05-21T07:03:39.341Z,65.80
2019-05-21T07:06:06.944Z,65.60
2019-05-21T07:08:35.339Z,65.50
2019-05-21T07:11:03.047Z,65.60
2019-05-21T07:13:31.145Z,65.50
2019-05-21T07:15:58.807Z,65.70
2019-05-21T07:18:26.355Z,65.40
2019-05-21T07:20:53.843Z,65.50
2019-05-21T07:23:21.376Z,65.50
2019-05-21T07:25:48.797Z,65.40
2019-05-21T07:28:16.232Z,65.50
2019-05-21T07:30:43.768Z,65.40
2019-05-21T07:33:11.366Z,65.50
2019-05-21T07:35:39.174Z,65.80
2019-05-21T07:38:06.706Z,65.70
2019-05-21T07:40:34.231Z,65.60
2019-05-21T07:43:01.841Z,65.70
2019-05-21T07:45:29.294Z,65.80
2019-05-21T07:47:56.829Z,65.70
2019-05-21T07:50:24.285Z,65.50
2019-05-21T07:52:51.801Z,65.40
2019-05-21T07:55:19.388Z,65.40
2019-05-21T07:57:46.865Z,65.40
2019-05-21T08:00:15.050Z,65.40
2019-05-21T08:02:42.502Z,65.40
2019-05-21T08:05:10.091Z,65.50
2019-05-21T08:07:37.598Z,65.70
2019-05-21T08:10:05.706Z,65.50
2019-05-21T08:12:38.699Z,65.40
2019-05-21T08:15:02.697Z,65.50
2019-05-21T08:17:30.181Z,65.50
2019-05-21T08:20:08.557Z,65.60
2019-05-21T08:22:26.943Z,65.50
2019-05-21T08:24:54.539Z,65.40
2019-05-21T08:27:21.998Z,65.30
2019-05-21T08:29:49.330Z,65.40
2019-05-21T08:32:16.805Z,65.40
2019-05-21T08:34:44.507Z,65.60
2019-05-21T08:37:12.022Z,64.00
2019-05-21T08:39:40.346Z,65.50
2019-05-21T08:42:07.779Z,66.00
2019-05-21T08:44:35.315Z,66.20
2019-05-21T08:47:02.791Z,65.70
2019-05-21T08:49:32.265Z,65.50
2019-05-21T08:51:59.742Z,65.50
2019-05-21T08:54:45.185Z,66.00
2019-05-21T08:57:12.601Z,65.70
2019-05-21T08:59:40.014Z,65.70
2019-05-21T09:02:07.446Z,65.70
2019-05-21T09:04:45.972Z,65.80
2019-05-21T09:07:04.210Z,65.80
2019-05-21T09:09:48.369Z,65.80
2019-05-21T09:12:01.021Z,65.90
2019-05-21T09:14:28.494Z,66.10
2019-05-21T09:16:55.928Z,66.20
2019-05-21T09:19:23.469Z,66.20
2019-05-21T09:21:50.848Z,66.40
2019-05-21T09:24:18.336Z,66.40
2019-05-21T09:26:45.740Z,66.40
2019-05-21T09:29:13.127Z,66.70
2019-05-21T09:31:40.673Z,66.70
2019-05-21T09:34:08.724Z,66.70
2019-05-21T09:36:36.130Z,66.70
2019-05-21T09:39:06.919Z,66.60
2019-05-21T09:41:34.508Z,66.40
2019-05-21T09:44:02.089Z,66.20
2019-05-21T09:46:29.513Z,65.90
2019-05-21T09:48:56.998Z,65.80
2019-05-21T09:51:24.545Z,65.60
2019-05-21T09:53:51.972Z,65.60
2019-05-21T09:56:35.619Z,65.50
2019-05-21T09:59:27.442Z,65.30
2019-05-21T10:01:57.697Z,65.40
2019-05-21T10:04:25.172Z,65.40
2019-05-21T10:06:53.533Z,65.20
2019-05-21T10:09:21.180Z,65.10
2019-05-21T10:11:48.618Z,65.20
2019-05-21T10:14:15.998Z,65.50
2019-05-21T10:16:43.412Z,65.50
2019-05-21T10:19:10.778Z,65.40
2019-05-21T10:21:38.214Z,65.50
2019-05-21T10:24:05.773Z,65.50
2019-05-21T10:26:33.460Z,65.60
2019-05-21T10:29:00.968Z,65.70
2019-05-21T10:31:28.401Z,65.50
2019-05-21T10:33:55.865Z,65.20
2019-05-21T10:36:23.319Z,65.00
2019-05-21T10:38:50.829Z,64.70
2019-05-21T10:41:18.350Z,64.60
2019-05-21T10:43:45.842Z,64.30
2019-05-21T10:46:13.249Z,65.30
2019-05-21T10:48:40.664Z,64.40
2019-05-21T10:51:08.184Z,64.30
2019-05-21T10:53:35.626Z,64.20
2019-05-21T10:56:03.243Z,64.40
2019-05-21T10:58:30.710Z,64.50
2019-05-21T11:01:16.722Z,64.50
2019-05-21T11:04:02.759Z,64.70
2019-05-21T11:06:30.510Z,64.50
2019-05-21T11:08:58.032Z,64.60
2019-05-21T11:11:25.687Z,64.30
2019-05-21T11:13:53.511Z,64.10
2019-05-21T11:16:21.035Z,64.70
2019-05-21T11:18:48.470Z,64.70
2019-05-21T11:21:21.341Z,64.70
2019-05-21T11:23:49.194Z,64.50
2019-05-21T11:26:16.691Z,64.50
2019-05-21T11:28:44.197Z,64.00
2019-05-21T11:31:11.541Z,63.30
2019-05-21T11:33:39.010Z,63.80
2019-05-21T11:36:06.507Z,63.90
2019-05-21T11:38:40.162Z,63.90
2019-05-21T11:41:03.985Z,63.80
2019-05-21T11:43:31.406Z,63.70
2019-05-21T11:45:58.853Z,63.70
2019-05-21T11:48:28.260Z,63.60
2019-05-21T11:50:56.742Z,63.70
2019-05-21T11:53:24.380Z,63.80
2019-05-21T11:55:51.907Z,63.70
2019-05-21T11:58:21.192Z,63.70
2019-05-21T12:00:48.834Z,62.70
2019-05-21T12:03:16.310Z,62.40
2019-05-21T12:05:43.739Z,62.20
2019-05-21T12:08:11.283Z,62.10
2019-05-21T12:10:38.814Z,62.00
2019-05-21T12:13:06.294Z,61.90
2019-05-21T12:15:35.696Z,62.30
2019-05-21T12:18:03.505Z,62.60
2019-05-21T12:20:36.627Z,63.00
2019-05-21T12:23:00.127Z,62.90
2019-05-21T12:25:27.504Z,62.70
2019-05-21T12:27:54.938Z,62.70
2019-05-21T12:30:25.342Z,63.00
2019-05-21T12:32:52.830Z,63.30
2019-05-21T12:35:20.315Z,62.70
2019-05-21T12:37:47.811Z,62.50
2019-05-21T12:40:15.727Z,62.20
2019-05-21T12:42:43.275Z,62.10
2019-05-21T12:45:10.851Z,62.60
2019-05-21T12:47:38.470Z,61.50
2019-05-21T12:50:06.105Z,61.50
2019-05-21T12:52:34.007Z,61.50
2019-05-21T12:55:01.686Z,61.60
2019-05-21T12:57:29.260Z,61.50
2019-05-21T12:59:56.754Z,61.60
2019-05-21T13:02:24.101Z,61.70
2019-05-21T13:04:51.698Z,61.90
2019-05-21T13:07:19.299Z,61.00
2019-05-21T13:09:46.800Z,61.90
2019-05-21T13:12:14.316Z,62.00
2019-05-21T13:14:41.833Z,62.20
2019-05-21T13:17:09.360Z,62.30
2019-05-21T13:19:36.863Z,62.50
2019-05-21T13:22:04.454Z,62.50
2019-05-21T13:24:32.000Z,62.50
2019-05-21T13:26:59.481Z,62.30
2019-05-21T13:29:27.089Z,62.50
2019-05-21T13:31:54.582Z,62.70
2019-05-21T13:34:22.082Z,62.70
2019-05-21T13:36:49.495Z,62.80
2019-05-21T13:39:17.036Z,63.00
2019-05-21T13:41:44.501Z,62.90
2019-05-21T13:44:11.911Z,62.90
2019-05-21T13:46:39.434Z,63.00
2019-05-21T13:49:06.839Z,63.00
2019-05-21T13:51:34.768Z,63.20
2019-05-21T13:54:03.548Z,63.20
2019-05-21T13:56:30.994Z,63.30
2019-05-21T13:58:58.735Z,63.20
2019-05-21T14:01:39.998Z,63.20
2019-05-21T14:03:55.598Z,63.20
2019-05-21T14:06:23.160Z,63.30
2019-05-21T14:08:50.632Z,63.30
2019-05-21T14:11:18.130Z,63.20
2019-05-21T14:13:45.619Z,63.30
2019-05-21T14:16:13.162Z,63.20
2019-05-21T14:18:40.612Z,63.50
2019-05-21T14:21:08.203Z,63.60
2019-05-21T14:23:35.692Z,63.80
2019-05-21T14:26:03.322Z,64.00
2019-05-21T14:28:34.298Z,64.20
2019-05-21T14:31:21.450Z,64.20
2019-05-21T14:33:48.896Z,64.30
2019-05-21T14:36:16.449Z,64.20
2019-05-21T14:38:43.903Z,63.30
2019-05-21T14:41:11.266Z,64.10
2019-05-21T14:43:38.728Z,64.10
2019-05-21T14:46:06.228Z,64.20
2019-05-21T14:48:38.188Z,64.30
2019-05-21T14:51:34.135Z,65.40
2019-05-21T14:54:06.338Z,64.90
2019-05-21T14:56:33.839Z,64.60
2019-05-21T14:59:01.215Z,64.60
2019-05-21T15:01:28.797Z,64.60
2019-05-21T15:04:01.536Z,64.80
2019-05-21T15:06:32.282Z,64.90
2019-05-21T15:08:59.855Z,64.90
2019-05-21T15:11:27.306Z,64.80
2019-05-21T15:13:55.082Z,65.20
2019-05-21T15:16:22.509Z,65.00
2019-05-21T15:18:50.001Z,65.10
2019-05-21T15:21:22.828Z,65.30
2019-05-21T15:23:50.452Z,65.10
2019-05-21T15:26:18.011Z,65.00
2019-05-21T15:28:45.839Z,65.00
2019-05-21T15:31:13.332Z,64.90
2019-05-21T15:33:40.796Z,65.30
2019-05-21T15:36:08.256Z,65.20
2019-05-21T15:38:49.595Z,65.10
2019-05-21T15:41:12.048Z,65.20
2019-05-21T15:43:34.373Z,65.20
2019-05-21T15:46:01.792Z,65.10
2019-05-21T15:48:29.296Z,65.30
2019-05-21T15:50:56.756Z,65.40
2019-05-21T15:53:24.245Z,65.50
2019-05-21T15:55:51.707Z,65.50
2019-05-21T15:58:19.195Z,65.50
2019-05-21T16:00:46.715Z,65.70
2019-05-21T16:03:14.282Z,65.70
2019-05-21T16:05:41.712Z,65.70
2019-05-21T16:08:09.168Z,66.70
2019-05-21T16:10:36.567Z,66.10
2019-05-21T16:13:04.223Z,66.10
2019-05-21T16:15:31.737Z,66.20
2019-05-21T16:17:59.265Z,66.40
2019-05-21T16:20:26.685Z,66.40
2019-05-21T16:22:54.149Z,66.40
2019-05-21T16:25:21.774Z,65.80
2019-05-21T16:27:49.162Z,66.70
2019-05-21T16:30:21.231Z,66.80
2019-05-21T16:32:48.715Z,67.00
2019-05-21T16:35:35.769Z,67.00
2019-05-21T16:38:03.335Z,67.80
2019-05-21T16:40:31.083Z,66.80
2019-05-21T16:42:58.689Z,66.80
2019-05-21T16:45:29.318Z,66.80
2019-05-21T16:47:56.770Z,67.10
2019-05-21T16:50:24.446Z,67.20
2019-05-21T16:52:53.011Z,67.20
2019-05-21T16:55:20.603Z,67.40
2019-05-21T16:57:48.315Z,67.50
2019-05-21T17:00:16.709Z,67.40
2019-05-21T17:02:44.135Z,67.40
2019-05-21T17:05:11.814Z,67.70
2019-05-21T17:07:39.216Z,67.50
2019-05-21T17:10:07.170Z,67.50
2019-05-21T17:12:34.882Z,67.50
2019-05-21T17:15:02.628Z,67.50
2019-05-21T17:17:30.132Z,67.50
2019-05-21T17:19:59.729Z,67.40
2019-05-21T17:22:26.942Z,67.30
2019-05-21T17:24:55.250Z,67.40
2019-05-21T17:27:22.739Z,67.00
2019-05-21T17:29:50.266Z,67.10
2019-05-21T17:32:17.772Z,67.00
2019-05-21T17:34:45.270Z,66.90
2019-05-21T17:37:12.774Z,67.00
2019-05-21T17:39:40.225Z,66.70
2019-05-21T17:42:15.513Z,66.90
2019-05-21T17:44:37.281Z,66.70
2019-05-21T17:47:04.793Z,66.60
2019-05-21T17:49:33.495Z,67.50
2019-05-21T17:52:06.122Z,66.70
2019-05-21T17:54:55.666Z,66.70
2019-05-21T17:57:49.374Z,69.70
2019-05-21T18:00:24.062Z,67.70
2019-05-21T18:02:53.893Z,67.70
2019-05-21T18:05:22.365Z,66.90
2019-05-21T18:07:50.556Z,67.20
2019-05-21T18:10:18.076Z,67.30
2019-05-21T18:12:48.655Z,67.60
2019-05-21T18:15:54.615Z,66.80
2019-05-21T18:18:30.228Z,66.60
2019-05-21T18:20:57.839Z,68.10
2019-05-21T18:23:34.157Z,67.20
2019-05-21T18:26:15.967Z,66.70
2019-05-21T18:29:38.621Z,66.90
2019-05-21T18:32:07.853Z,65.50
2019-05-21T18:34:44.173Z,66.60
2019-05-21T18:37:14.391Z,66.80
2019-05-21T18:40:30.227Z,67.00
2019-05-21T18:43:37.557Z,66.70
2019-05-21T18:46:27.281Z,66.70
2019-05-21T18:49:27.576Z,66.80
2019-05-21T18:51:53.779Z,64.50
2019-05-21T18:54:31.859Z,66.00
2019-05-21T18:57:21.845Z,66.70
2019-05-21T18:59:52.923Z,65.60
2019-05-21T19:02:20.847Z,67.70
2019-05-21T19:05:09.317Z,66.90
2019-05-21T19:07:37.595Z,66.80
2019-05-21T19:10:05.573Z,67.20
2019-05-21T19:12:38.748Z,66.80
2019-05-21T19:15:07.576Z,66.60
2019-05-21T19:17:36.064Z,65.80
2019-05-21T19:20:04.547Z,67.50
2019-05-21T19:22:32.186Z,67.00
2019-05-21T19:24:59.852Z,67.10
2019-05-21T19:30:16.269Z,67.30
2019-05-21T19:32:44.440Z,67.40
2019-05-21T19:35:15.369Z,67.60
2019-05-21T19:37:48.825Z,65.50
2019-05-21T19:40:21.279Z,67.40
2019-05-21T19:42:59.395Z,66.80
2019-05-21T19:46:09.599Z,66.90
2019-05-21T19:49:01.831Z,67.20
2019-05-21T19:51:30.666Z,67.50
2019-05-21T19:54:18.563Z,67.70
2019-05-21T19:56:55.544Z,67.70
2019-05-21T19:59:29.067Z,68.00
2019-05-21T20:02:00.404Z,67.40
2019-05-21T20:04:29.604Z,66.90
2019-05-21T20:06:57.553Z,67.10
2019-05-21T20:09:27.177Z,67.20
2019-05-21T20:11:54.640Z,67.10
2019-05-21T20:14:22.328Z,67.10
2019-05-21T20:16:50.221Z,67.10
2019-05-21T20:19:20.976Z,67.10
2019-05-21T20:21:48.677Z,67.10
2019-05-21T20:24:16.520Z,67.00
2019-05-21T20:26:44.616Z,67.10
2019-05-21T20:29:12.904Z,67.20
2019-05-21T20:31:40.530Z,68.70
2019-05-21T20:34:09.903Z,67.00
2019-05-21T20:36:40.625Z,67.00
2019-05-21T20:39:09.737Z,66.60
2019-05-21T20:41:38.877Z,66.80
2019-05-21T20:44:09.467Z,67.50
2019-05-21T20:46:40.646Z,67.10
2019-05-21T20:49:12.083Z,67.40
2019-05-21T20:51:40.951Z,66.80
2019-05-21T20:54:17.229Z,66.90
2019-05-21T20:56:44.875Z,67.10
2019-05-21T20:59:12.679Z,67.20
2019-05-21T21:01:43.345Z,66.80
2019-05-21T21:04:13.259Z,67.10
2019-05-21T21:06:42.562Z,67.30
2019-05-21T21:09:11.967Z,67.80
2019-05-21T21:11:40.278Z,68.10
2019-05-21T21:14:18.128Z,67.20
2019-05-21T21:16:38.342Z,67.20
2019-05-21T21:19:07.553Z,67.40
2019-05-21T21:21:36.391Z,67.20
2019-05-21T21:24:05.905Z,67.20
2019-05-21T21:26:34.468Z,67.30
2019-05-21T21:29:22.055Z,67.40
2019-05-21T21:31:49.814Z,67.80
2019-05-21T21:34:17.887Z,67.00
2019-05-21T21:36:45.543Z,66.30
2019-05-21T21:39:13.956Z,68.20
2019-05-21T21:41:41.610Z,67.20
2019-05-21T21:44:09.362Z,67.10
2019-05-21T21:46:36.796Z,67.20
2019-05-21T21:49:04.141Z,67.40
2019-05-21T21:51:31.657Z,67.20
2019-05-21T21:54:00.429Z,67.30
2019-05-21T21:56:27.983Z,67.20
2019-05-21T21:58:55.367Z,67.20
2019-05-21T22:01:48.628Z,67.30
2019-05-21T22:04:20.525Z,66.70
2019-05-21T22:06:48.977Z,67.30
2019-05-21T22:09:25.788Z,67.30
2019-05-21T22:11:54.478Z,67.30
2019-05-21T22:14:23.492Z,67.10
2019-05-21T22:16:51.876Z,67.20
2019-05-21T22:19:19.811Z,67.20
2019-05-21T22:21:50.006Z,67.00
2019-05-21T22:24:17.638Z,67.20
2019-05-21T22:26:45.422Z,68.00
2019-05-21T22:29:13.426Z,67.40
2019-05-21T22:31:41.046Z,67.20
2019-05-21T22:34:08.406Z,68.10
2019-05-21T22:36:35.864Z,67.20
2019-05-21T22:39:07.539Z,67.40
2019-05-21T22:41:35.172Z,67.40
2019-05-21T22:44:03.225Z,67.60
2019-05-21T22:46:31.346Z,67.50
2019-05-21T22:48:58.806Z,67.80
2019-05-21T22:51:26.234Z,67.80
2019-05-21T22:53:53.950Z,67.50
2019-05-21T22:56:21.382Z,67.60
2019-05-21T22:58:48.878Z,67.40
2019-05-21T23:01:17.339Z,67.50
2019-05-21T23:03:44.756Z,67.50
2019-05-21T23:06:12.379Z,67.50
2019-05-21T23:08:39.767Z,67.60
2019-05-21T23:11:07.390Z,67.50
2019-05-21T23:13:35.006Z,67.60
2019-05-21T23:16:03.442Z,67.80
2019-05-21T23:18:31.001Z,67.80
2019-05-21T23:20:59.765Z,67.50
2019-05-21T23:23:27.657Z,67.60
2019-05-21T23:25:56.579Z,67.50
2019-05-21T23:28:24.586Z,67.50
2019-05-21T23:30:52.063Z,67.00
2019-05-21T23:33:20.925Z,67.50
2019-05-21T23:35:49.013Z,67.80
2019-05-21T23:38:18.261Z,67.70
2019-05-21T23:40:48.057Z,67.60
2019-05-21T23:43:16.609Z,67.70
2019-05-21T23:45:44.963Z,67.50
2019-05-21T23:48:13.959Z,67.70
2019-05-21T23:50:41.510Z,65.80
2019-05-21T23:53:09.213Z,67.40
2019-05-21T23:55:37.625Z,67.40
2019-05-21T23:58:05.373Z,67.30
